sensor_id;sensor_type;location;lat;lon;timestamp;temperature;humidity
75296;DHT22;64623;44.738;37.804;2024-01-30T00:00:53;-1.67;118.99
75296;DHT22;64623;44.738;37.804;2024-01-30T00:01:56;-1.67;118.99
75296;DHT22;64623;44.738;37.804;2024-01-30T00:02:59;-1.68;118.99
75296;DHT22;64623;44.738;37.804;2024-01-30T00:04:02;-1.63;118.99
75296;DHT22;64623;44.738;37.804;2024-01-30T00:05:05;-1.64;118.99
75296;DHT22;64623;44.738;37.804;2024-01-30T00:06:08;-1.68;118.99
75296;DHT22;64623;44.738;37.804;2024-01-30T00:07:11;-1.68;118.99
75296;DHT22;64623;44.738;37.804;2024-01-30T00:08:14;-1.71;118.99
75296;DHT22;64623;44.738;37.804;2024-01-30T00:09:17;-1.73;118.99
75296;DHT22;64623;44.738;37.804;2024-01-30T00:10:20;-1.73;118.99
75296;DHT22;64623;44.738;37.804;2024-01-30T00:11:23;-1.72;118.99
75296;DHT22;64623;44.738;37.804;2024-01-30T00:12:28;-1.71;118.99
75296;DHT22;64623;44.738;37.804;2024-01-30T00:13:31;-1.72;118.99
75296;DHT22;64623;44.738;37.804;2024-01-30T00:14:34;-1.73;118.99
75296;DHT22;64623;44.738;37.804;2024-01-30T00:15:36;-1.74;118.99
75296;DHT22;64623;44.738;37.804;2024-01-30T00:16:40;-1.73;118.99
75296;DHT22;64623;44.738;37.804;2024-01-30T00:17:43;-1.75;118.99
75296;DHT22;64623;44.738;37.804;2024-01-30T00:18:45;-1.76;118.99
75296;DHT22;64623;44.738;37.804;2024-01-30T00:19:48;-1.77;118.99
75296;DHT22;64623;44.738;37.804;2024-01-30T00:20:52;-1.75;118.99
75296;DHT22;64623;44.738;37.804;2024-01-30T00:21:55;-1.72;118.99
75296;DHT22;64623;44.738;37.804;2024-01-30T00:22:58;-1.71;118.99
75296;DHT22;64623;44.738;37.804;2024-01-30T00:24:01;-1.71;118.99
75296;DHT22;64623;44.738;37.804;2024-01-30T00:25:05;-1.71;118.99
75296;DHT22;64623;44.738;37.804;2024-01-30T00:26:08;-1.70;118.99
75296;DHT22;64623;44.738;37.804;2024-01-30T00:27:11;-1.71;118.99
75296;DHT22;64623;44.738;37.804;2024-01-30T00:28:14;-1.71;118.99
75296;DHT22;64623;44.738;37.804;2024-01-30T00:29:17;-1.71;118.99
75296;DHT22;64623;44.738;37.804;2024-01-30T00:30:22;-1.69;118.99
75296;DHT22;64623;44.738;37.804;2024-01-30T00:31:25;-1.69;118.99
75296;DHT22;64623;44.738;37.804;2024-01-30T00:32:28;-1.71;118.99
75296;DHT22;64623;44.738;37.804;2024-01-30T00:33:30;-1.71;118.99
75296;DHT22;64623;44.738;37.804;2024-01-30T00:34:33;-1.70;118.99
75296;DHT22;64623;44.738;37.804;2024-01-30T00:35:36;-1.68;118.99
75296;DHT22;64623;44.738;37.804;2024-01-30T00:36:39;-1.69;118.99
75296;DHT22;64623;44.738;37.804;2024-01-30T00:37:42;-1.62;118.99
75296;DHT22;64623;44.738;37.804;2024-01-30T00:38:45;-1.62;118.99
75296;DHT22;64623;44.738;37.804;2024-01-30T00:39:48;-1.62;118.99
75296;DHT22;64623;44.738;37.804;2024-01-30T00:40:51;-1.60;118.99
75296;DHT22;64623;44.738;37.804;2024-01-30T00:41:54;-1.63;118.99
75296;DHT22;64623;44.738;37.804;2024-01-30T00:42:57;-1.62;118.99
75296;DHT22;64623;44.738;37.804;2024-01-30T00:44:00;-1.58;118.99
75296;DHT22;64623;44.738;37.804;2024-01-30T00:45:03;-1.59;118.99
75296;DHT22;64623;44.738;37.804;2024-01-30T00:46:06;-1.61;118.99
75296;DHT22;64623;44.738;37.804;2024-01-30T00:47:09;-1.62;118.99
75296;DHT22;64623;44.738;37.804;2024-01-30T00:48:12;-1.64;118.99
75296;DHT22;64623;44.738;37.804;2024-01-30T00:49:15;-1.67;118.99
75296;DHT22;64623;44.738;37.804;2024-01-30T00:50:18;-1.68;118.99
75296;DHT22;64623;44.738;37.804;2024-01-30T00:51:21;-1.64;118.99
75296;DHT22;64623;44.738;37.804;2024-01-30T00:52:24;-1.68;118.99
75296;DHT22;64623;44.738;37.804;2024-01-30T00:53:27;-1.67;118.99
75296;DHT22;64623;44.738;37.804;2024-01-30T00:54:30;-1.67;118.99
75296;DHT22;64623;44.738;37.804;2024-01-30T00:55:33;-1.65;118.99
75296;DHT22;64623;44.738;37.804;2024-01-30T00:56:36;-1.59;118.99
75296;DHT22;64623;44.738;37.804;2024-01-30T00:57:39;-1.57;118.99
75296;DHT22;64623;44.738;37.804;2024-01-30T00:58:43;-1.57;118.99
75296;DHT22;64623;44.738;37.804;2024-01-30T00:59:46;-1.58;118.99
75296;DHT22;64623;44.738;37.804;2024-01-30T01:00:49;-1.58;118.99
75296;DHT22;64623;44.738;37.804;2024-01-30T01:01:53;-1.53;118.99
75296;DHT22;64623;44.738;37.804;2024-01-30T01:03:01;-1.49;118.99
75296;DHT22;64623;44.738;37.804;2024-01-30T01:04:05;-1.50;118.99
75296;DHT22;64623;44.738;37.804;2024-01-30T01:05:10;-1.49;118.99
75296;DHT22;64623;44.738;37.804;2024-01-30T01:06:13;-1.52;118.99
75296;DHT22;64623;44.738;37.804;2024-01-30T01:07:16;-1.56;118.99
75296;DHT22;64623;44.738;37.804;2024-01-30T01:08:18;-1.58;118.99
75296;DHT22;64623;44.738;37.804;2024-01-30T01:09:22;-1.57;118.99
75296;DHT22;64623;44.738;37.804;2024-01-30T01:10:25;-1.56;118.99
75296;DHT22;64623;44.738;37.804;2024-01-30T01:11:29;-1.56;118.99
75296;DHT22;64623;44.738;37.804;2024-01-30T01:12:32;-1.56;118.99
75296;DHT22;64623;44.738;37.804;2024-01-30T01:13:35;-1.53;118.99
75296;DHT22;64623;44.738;37.804;2024-01-30T01:14:38;-1.55;118.99
75296;DHT22;64623;44.738;37.804;2024-01-30T01:15:42;-1.58;118.99
75296;DHT22;64623;44.738;37.804;2024-01-30T01:16:45;-1.58;118.99
75296;DHT22;64623;44.738;37.804;2024-01-30T01:17:48;-1.58;118.99
75296;DHT22;64623;44.738;37.804;2024-01-30T01:18:51;-1.57;118.99
75296;DHT22;64623;44.738;37.804;2024-01-30T01:19:54;-1.59;118.99
75296;DHT22;64623;44.738;37.804;2024-01-30T01:20:57;-1.59;118.99
75296;DHT22;64623;44.738;37.804;2024-01-30T01:22:00;-1.58;118.99
75296;DHT22;64623;44.738;37.804;2024-01-30T01:23:03;-1.59;118.99
75296;DHT22;64623;44.738;37.804;2024-01-30T01:24:06;-1.58;118.99
75296;DHT22;64623;44.738;37.804;2024-01-30T01:25:09;-1.57;118.99
75296;DHT22;64623;44.738;37.804;2024-01-30T01:26:13;-1.59;118.99
75296;DHT22;64623;44.738;37.804;2024-01-30T01:27:16;-1.62;118.99
75296;DHT22;64623;44.738;37.804;2024-01-30T01:28:19;-1.63;118.99
75296;DHT22;64623;44.738;37.804;2024-01-30T01:29:22;-1.65;118.99
75296;DHT22;64623;44.738;37.804;2024-01-30T01:30:31;-1.67;118.99
75296;DHT22;64623;44.738;37.804;2024-01-30T01:31:34;-1.68;118.99
75296;DHT22;64623;44.738;37.804;2024-01-30T01:32:37;-1.67;118.99
75296;DHT22;64623;44.738;37.804;2024-01-30T01:33:41;-1.68;118.99
75296;DHT22;64623;44.738;37.804;2024-01-30T01:34:44;-1.68;118.99
75296;DHT22;64623;44.738;37.804;2024-01-30T01:35:47;-1.70;118.99
75296;DHT22;64623;44.738;37.804;2024-01-30T01:36:50;-1.69;118.99
75296;DHT22;64623;44.738;37.804;2024-01-30T01:37:54;-1.72;118.99
75296;DHT22;64623;44.738;37.804;2024-01-30T01:39:02;-1.73;118.99
75296;DHT22;64623;44.738;37.804;2024-01-30T01:40:08;-1.70;118.99
75296;DHT22;64623;44.738;37.804;2024-01-30T01:41:11;-1.64;118.99
75296;DHT22;64623;44.738;37.804;2024-01-30T01:42:14;-1.60;118.99
75296;DHT22;64623;44.738;37.804;2024-01-30T01:43:17;-1.60;118.99
75296;DHT22;64623;44.738;37.804;2024-01-30T01:44:20;-1.60;118.99
75296;DHT22;64623;44.738;37.804;2024-01-30T01:45:23;-1.63;118.99
75296;DHT22;64623;44.738;37.804;2024-01-30T01:46:27;-1.62;118.99
75296;DHT22;64623;44.738;37.804;2024-01-30T01:47:32;-1.61;118.99
75296;DHT22;64623;44.738;37.804;2024-01-30T01:48:35;-1.61;118.99
75296;DHT22;64623;44.738;37.804;2024-01-30T01:49:39;-1.60;118.99
75296;DHT22;64623;44.738;37.804;2024-01-30T01:50:43;-1.58;118.99
75296;DHT22;64623;44.738;37.804;2024-01-30T01:51:47;-1.59;118.99
75296;DHT22;64623;44.738;37.804;2024-01-30T01:52:51;-1.57;118.99
75296;DHT22;64623;44.738;37.804;2024-01-30T01:53:55;-1.58;118.99
75296;DHT22;64623;44.738;37.804;2024-01-30T01:54:59;-1.58;118.99
75296;DHT22;64623;44.738;37.804;2024-01-30T01:56:04;-1.60;118.99
75296;DHT22;64623;44.738;37.804;2024-01-30T01:57:07;-1.60;118.99
75296;DHT22;64623;44.738;37.804;2024-01-30T01:58:10;-1.57;118.99
75296;DHT22;64623;44.738;37.804;2024-01-30T01:59:15;-1.57;118.99
75296;DHT22;64623;44.738;37.804;2024-01-30T02:00:19;-1.54;118.99
75296;DHT22;64623;44.738;37.804;2024-01-30T02:01:23;-1.50;118.99
75296;DHT22;64623;44.738;37.804;2024-01-30T02:02:30;-1.49;118.99
75296;DHT22;64623;44.738;37.804;2024-01-30T02:03:34;-1.48;118.99
75296;DHT22;64623;44.738;37.804;2024-01-30T02:04:37;-1.45;118.99
75296;DHT22;64623;44.738;37.804;2024-01-30T02:05:41;-1.48;118.99
75296;DHT22;64623;44.738;37.804;2024-01-30T02:06:45;-1.49;118.99
75296;DHT22;64623;44.738;37.804;2024-01-30T02:07:48;-1.52;118.99
75296;DHT22;64623;44.738;37.804;2024-01-30T02:08:51;-1.49;118.99
75296;DHT22;64623;44.738;37.804;2024-01-30T02:09:55;-1.49;118.99
75296;DHT22;64623;44.738;37.804;2024-01-30T02:10:58;-1.53;118.99
75296;DHT22;64623;44.738;37.804;2024-01-30T02:12:01;-1.57;118.99
75296;DHT22;64623;44.738;37.804;2024-01-30T02:13:04;-1.62;118.99
75296;DHT22;64623;44.738;37.804;2024-01-30T02:14:07;-1.64;118.99
75296;DHT22;64623;44.738;37.804;2024-01-30T02:15:13;-1.60;118.99
75296;DHT22;64623;44.738;37.804;2024-01-30T02:16:16;-1.59;118.99
75296;DHT22;64623;44.738;37.804;2024-01-30T02:17:23;-1.57;118.99
75296;DHT22;64623;44.738;37.804;2024-01-30T02:18:26;-1.58;118.99
75296;DHT22;64623;44.738;37.804;2024-01-30T02:19:49;-1.62;118.99
75296;DHT22;64623;44.738;37.804;2024-01-30T02:20:54;-1.65;118.99
75296;DHT22;64623;44.738;37.804;2024-01-30T02:21:58;-1.70;118.99
75296;DHT22;64623;44.738;37.804;2024-01-30T02:23:02;-1.69;118.99
75296;DHT22;64623;44.738;37.804;2024-01-30T02:24:05;-1.70;118.99
75296;DHT22;64623;44.738;37.804;2024-01-30T02:25:08;-1.65;118.99
75296;DHT22;64623;44.738;37.804;2024-01-30T02:26:11;-1.60;118.99
75296;DHT22;64623;44.738;37.804;2024-01-30T02:27:15;-1.65;118.99
75296;DHT22;64623;44.738;37.804;2024-01-30T02:28:18;-1.62;118.99
75296;DHT22;64623;44.738;37.804;2024-01-30T02:29:21;-1.62;118.99
75296;DHT22;64623;44.738;37.804;2024-01-30T02:30:24;-1.62;118.99
75296;DHT22;64623;44.738;37.804;2024-01-30T02:31:27;-1.58;118.99
75296;DHT22;64623;44.738;37.804;2024-01-30T02:32:30;-1.60;118.99
75296;DHT22;64623;44.738;37.804;2024-01-30T02:33:33;-1.62;118.99
75296;DHT22;64623;44.738;37.804;2024-01-30T02:34:36;-1.67;118.99
75296;DHT22;64623;44.738;37.804;2024-01-30T02:35:39;-1.64;118.99
75296;DHT22;64623;44.738;37.804;2024-01-30T02:36:43;-1.62;118.99
75296;DHT22;64623;44.738;37.804;2024-01-30T02:37:46;-1.61;118.99
75296;DHT22;64623;44.738;37.804;2024-01-30T02:38:49;-1.57;118.99
75296;DHT22;64623;44.738;37.804;2024-01-30T02:39:52;-1.60;118.99
75296;DHT22;64623;44.738;37.804;2024-01-30T02:40:55;-1.61;118.99
75296;DHT22;64623;44.738;37.804;2024-01-30T02:41:59;-1.57;118.99
75296;DHT22;64623;44.738;37.804;2024-01-30T02:43:02;-1.56;118.99
75296;DHT22;64623;44.738;37.804;2024-01-30T02:44:06;-1.56;118.99
75296;DHT22;64623;44.738;37.804;2024-01-30T02:45:09;-1.53;118.99
75296;DHT22;64623;44.738;37.804;2024-01-30T02:46:13;-1.53;118.99
75296;DHT22;64623;44.738;37.804;2024-01-30T02:47:16;-1.58;118.99
75296;DHT22;64623;44.738;37.804;2024-01-30T02:48:18;-1.58;118.99
75296;DHT22;64623;44.738;37.804;2024-01-30T02:49:21;-1.56;118.99
75296;DHT22;64623;44.738;37.804;2024-01-30T02:50:24;-1.58;118.99
75296;DHT22;64623;44.738;37.804;2024-01-30T02:51:27;-1.63;118.99
75296;DHT22;64623;44.738;37.804;2024-01-30T02:52:30;-1.67;118.99
75296;DHT22;64623;44.738;37.804;2024-01-30T02:53:33;-1.65;118.99
75296;DHT22;64623;44.738;37.804;2024-01-30T02:54:36;-1.61;118.99
75296;DHT22;64623;44.738;37.804;2024-01-30T02:55:39;-1.60;118.99
75296;DHT22;64623;44.738;37.804;2024-01-30T02:56:43;-1.59;118.99
75296;DHT22;64623;44.738;37.804;2024-01-30T02:57:46;-1.64;118.99
75296;DHT22;64623;44.738;37.804;2024-01-30T02:58:49;-1.62;118.99
75296;DHT22;64623;44.738;37.804;2024-01-30T02:59:51;-1.62;118.99
75296;DHT22;64623;44.738;37.804;2024-01-30T03:00:54;-1.60;118.99
75296;DHT22;64623;44.738;37.804;2024-01-30T03:01:57;-1.62;118.99
75296;DHT22;64623;44.738;37.804;2024-01-30T03:03:00;-1.64;118.99
75296;DHT22;64623;44.738;37.804;2024-01-30T03:04:04;-1.68;118.99
75296;DHT22;64623;44.738;37.804;2024-01-30T03:05:08;-1.72;118.99
75296;DHT22;64623;44.738;37.804;2024-01-30T03:06:11;-1.69;118.99
75296;DHT22;64623;44.738;37.804;2024-01-30T03:07:14;-1.71;118.99
75296;DHT22;64623;44.738;37.804;2024-01-30T03:08:17;-1.65;118.99
75296;DHT22;64623;44.738;37.804;2024-01-30T03:09:20;-1.68;118.99
75296;DHT22;64623;44.738;37.804;2024-01-30T03:10:23;-1.70;118.99
75296;DHT22;64623;44.738;37.804;2024-01-30T03:11:26;-1.67;118.99
75296;DHT22;64623;44.738;37.804;2024-01-30T03:12:28;-1.69;118.99
75296;DHT22;64623;44.738;37.804;2024-01-30T03:13:31;-1.77;118.99
75296;DHT22;64623;44.738;37.804;2024-01-30T03:14:35;-1.77;118.99
75296;DHT22;64623;44.738;37.804;2024-01-30T03:15:37;-1.77;118.99
75296;DHT22;64623;44.738;37.804;2024-01-30T03:16:40;-1.76;118.99
75296;DHT22;64623;44.738;37.804;2024-01-30T03:17:43;-1.77;118.99
75296;DHT22;64623;44.738;37.804;2024-01-30T03:18:46;-1.82;118.99
75296;DHT22;64623;44.738;37.804;2024-01-30T03:19:51;-1.80;118.99
75296;DHT22;64623;44.738;37.804;2024-01-30T03:20:54;-1.84;118.99
75296;DHT22;64623;44.738;37.804;2024-01-30T03:21:57;-1.87;118.99
75296;DHT22;64623;44.738;37.804;2024-01-30T03:23:00;-1.88;118.99
75296;DHT22;64623;44.738;37.804;2024-01-30T03:24:03;-1.88;118.99
75296;DHT22;64623;44.738;37.804;2024-01-30T03:25:07;-1.90;118.99
75296;DHT22;64623;44.738;37.804;2024-01-30T03:26:10;-1.90;118.99
75296;DHT22;64623;44.738;37.804;2024-01-30T03:27:15;-1.91;118.99
75296;DHT22;64623;44.738;37.804;2024-01-30T03:28:18;-1.88;118.99
75296;DHT22;64623;44.738;37.804;2024-01-30T03:29:21;-1.87;118.99
75296;DHT22;64623;44.738;37.804;2024-01-30T03:30:24;-1.87;118.99
75296;DHT22;64623;44.738;37.804;2024-01-30T03:31:27;-1.90;118.99
75296;DHT22;64623;44.738;37.804;2024-01-30T03:32:30;-1.87;118.99
75296;DHT22;64623;44.738;37.804;2024-01-30T03:33:33;-1.90;118.99
75296;DHT22;64623;44.738;37.804;2024-01-30T03:34:36;-1.92;118.99
75296;DHT22;64623;44.738;37.804;2024-01-30T03:35:39;-1.91;118.99
75296;DHT22;64623;44.738;37.804;2024-01-30T03:36:42;-1.90;118.99
75296;DHT22;64623;44.738;37.804;2024-01-30T03:37:45;-1.89;118.99
75296;DHT22;64623;44.738;37.804;2024-01-30T03:38:48;-1.92;118.99
75296;DHT22;64623;44.738;37.804;2024-01-30T03:39:51;-1.94;118.99
75296;DHT22;64623;44.738;37.804;2024-01-30T03:40:54;-1.98;118.99
75296;DHT22;64623;44.738;37.804;2024-01-30T03:41:57;-1.99;118.99
75296;DHT22;64623;44.738;37.804;2024-01-30T03:42:59;-1.95;118.99
75296;DHT22;64623;44.738;37.804;2024-01-30T03:44:02;-1.99;118.99
75296;DHT22;64623;44.738;37.804;2024-01-30T03:45:06;-2.02;118.99
75296;DHT22;64623;44.738;37.804;2024-01-30T03:46:11;-2.03;118.99
75296;DHT22;64623;44.738;37.804;2024-01-30T03:47:14;-2.04;118.99
75296;DHT22;64623;44.738;37.804;2024-01-30T03:48:18;-2.03;118.99
75296;DHT22;64623;44.738;37.804;2024-01-30T03:49:21;-2.02;118.99
75296;DHT22;64623;44.738;37.804;2024-01-30T03:50:24;-1.99;118.99
75296;DHT22;64623;44.738;37.804;2024-01-30T03:51:27;-1.95;118.99
75296;DHT22;64623;44.738;37.804;2024-01-30T03:52:30;-1.93;118.99
75296;DHT22;64623;44.738;37.804;2024-01-30T03:53:33;-1.95;118.99
75296;DHT22;64623;44.738;37.804;2024-01-30T03:54:36;-1.99;118.99
75296;DHT22;64623;44.738;37.804;2024-01-30T03:55:39;-1.95;118.99
75296;DHT22;64623;44.738;37.804;2024-01-30T03:56:42;-1.94;118.99
75296;DHT22;64623;44.738;37.804;2024-01-30T03:57:44;-1.97;118.99
75296;DHT22;64623;44.738;37.804;2024-01-30T03:58:47;-1.97;118.99
75296;DHT22;64623;44.738;37.804;2024-01-30T03:59:50;-1.92;118.99
75296;DHT22;64623;44.738;37.804;2024-01-30T04:00:53;-1.90;118.99
75296;DHT22;64623;44.738;37.804;2024-01-30T04:01:56;-1.87;118.99
75296;DHT22;64623;44.738;37.804;2024-01-30T04:02:59;-1.88;118.99
75296;DHT22;64623;44.738;37.804;2024-01-30T04:04:02;-1.91;118.99
75296;DHT22;64623;44.738;37.804;2024-01-30T04:05:05;-1.89;118.99
75296;DHT22;64623;44.738;37.804;2024-01-30T04:06:09;-1.88;118.99
75296;DHT22;64623;44.738;37.804;2024-01-30T04:07:12;-1.88;118.99
75296;DHT22;64623;44.738;37.804;2024-01-30T04:08:15;-1.87;118.99
75296;DHT22;64623;44.738;37.804;2024-01-30T04:09:18;-1.83;118.99
75296;DHT22;64623;44.738;37.804;2024-01-30T04:10:21;-1.72;118.99
75296;DHT22;64623;44.738;37.804;2024-01-30T04:11:26;-1.70;118.99
75296;DHT22;64623;44.738;37.804;2024-01-30T04:12:29;-1.63;118.99
75296;DHT22;64623;44.738;37.804;2024-01-30T04:13:33;-1.65;118.99
75296;DHT22;64623;44.738;37.804;2024-01-30T04:14:39;-1.68;118.99
75296;DHT22;64623;44.738;37.804;2024-01-30T04:15:42;-1.67;118.99
75296;DHT22;64623;44.738;37.804;2024-01-30T04:16:45;-1.59;118.99
75296;DHT22;64623;44.738;37.804;2024-01-30T04:17:48;-1.54;118.99
75296;DHT22;64623;44.738;37.804;2024-01-30T04:18:52;-1.58;118.99
75296;DHT22;64623;44.738;37.804;2024-01-30T04:19:55;-1.54;118.99
75296;DHT22;64623;44.738;37.804;2024-01-30T04:20:58;-1.58;118.99
75296;DHT22;64623;44.738;37.804;2024-01-30T04:22:01;-1.67;118.99
75296;DHT22;64623;44.738;37.804;2024-01-30T04:23:04;-1.70;118.99
75296;DHT22;64623;44.738;37.804;2024-01-30T04:24:07;-1.78;118.99
75296;DHT22;64623;44.738;37.804;2024-01-30T04:25:10;-1.69;118.99
75296;DHT22;64623;44.738;37.804;2024-01-30T04:26:14;-1.67;118.99
75296;DHT22;64623;44.738;37.804;2024-01-30T04:27:17;-1.70;118.99
75296;DHT22;64623;44.738;37.804;2024-01-30T04:28:20;-1.68;118.99
75296;DHT22;64623;44.738;37.804;2024-01-30T04:29:23;-1.62;118.99
75296;DHT22;64623;44.738;37.804;2024-01-30T04:30:26;-1.59;118.99
75296;DHT22;64623;44.738;37.804;2024-01-30T04:31:29;-1.62;118.99
75296;DHT22;64623;44.738;37.804;2024-01-30T04:32:32;-1.61;118.99
75296;DHT22;64623;44.738;37.804;2024-01-30T04:33:35;-1.64;118.99
75296;DHT22;64623;44.738;37.804;2024-01-30T04:34:38;-1.63;118.99
75296;DHT22;64623;44.738;37.804;2024-01-30T04:35:42;-1.59;118.99
75296;DHT22;64623;44.738;37.804;2024-01-30T04:36:45;-1.54;118.99
75296;DHT22;64623;44.738;37.804;2024-01-30T04:37:48;-1.53;118.99
75296;DHT22;64623;44.738;37.804;2024-01-30T04:38:51;-1.53;118.99
75296;DHT22;64623;44.738;37.804;2024-01-30T04:39:54;-1.36;118.99
75296;DHT22;64623;44.738;37.804;2024-01-30T04:40:57;-1.40;118.99
75296;DHT22;64623;44.738;37.804;2024-01-30T04:42:00;-1.39;118.99
75296;DHT22;64623;44.738;37.804;2024-01-30T04:43:03;-1.49;118.99
75296;DHT22;64623;44.738;37.804;2024-01-30T04:44:06;-1.48;118.99
75296;DHT22;64623;44.738;37.804;2024-01-30T04:45:09;-1.47;118.99
75296;DHT22;64623;44.738;37.804;2024-01-30T04:46:12;-1.50;118.99
75296;DHT22;64623;44.738;37.804;2024-01-30T04:47:15;-1.53;118.99
75296;DHT22;64623;44.738;37.804;2024-01-30T04:48:18;-1.50;118.99
75296;DHT22;64623;44.738;37.804;2024-01-30T04:49:21;-1.56;118.99
75296;DHT22;64623;44.738;37.804;2024-01-30T04:50:24;-1.56;118.99
75296;DHT22;64623;44.738;37.804;2024-01-30T04:51:29;-1.60;118.99
75296;DHT22;64623;44.738;37.804;2024-01-30T04:52:32;-1.61;118.99
75296;DHT22;64623;44.738;37.804;2024-01-30T04:53:35;-1.44;118.99
75296;DHT22;64623;44.738;37.804;2024-01-30T04:54:38;-1.40;118.99
75296;DHT22;64623;44.738;37.804;2024-01-30T04:55:41;-1.33;118.99
75296;DHT22;64623;44.738;37.804;2024-01-30T04:56:48;-1.27;118.99
75296;DHT22;64623;44.738;37.804;2024-01-30T04:57:51;-1.24;118.99
75296;DHT22;64623;44.738;37.804;2024-01-30T04:58:54;-1.21;118.99
75296;DHT22;64623;44.738;37.804;2024-01-30T04:59:57;-1.21;118.99
75296;DHT22;64623;44.738;37.804;2024-01-30T05:01:00;-1.35;118.99
75296;DHT22;64623;44.738;37.804;2024-01-30T05:02:03;-1.43;118.99
75296;DHT22;64623;44.738;37.804;2024-01-30T05:03:06;-1.48;118.99
75296;DHT22;64623;44.738;37.804;2024-01-30T05:04:09;-1.50;118.99
75296;DHT22;64623;44.738;37.804;2024-01-30T05:05:14;-1.49;118.99
75296;DHT22;64623;44.738;37.804;2024-01-30T05:06:27;-1.43;118.99
75296;DHT22;64623;44.738;37.804;2024-01-30T05:07:30;-1.36;118.99
75296;DHT22;64623;44.738;37.804;2024-01-30T05:08:33;-1.33;118.99
75296;DHT22;64623;44.738;37.804;2024-01-30T05:09:39;-1.35;118.99
75296;DHT22;64623;44.738;37.804;2024-01-30T05:10:42;-1.35;118.99
75296;DHT22;64623;44.738;37.804;2024-01-30T05:11:45;-1.35;118.99
75296;DHT22;64623;44.738;37.804;2024-01-30T05:12:47;-1.30;118.99
75296;DHT22;64623;44.738;37.804;2024-01-30T05:13:50;-1.33;118.99
75296;DHT22;64623;44.738;37.804;2024-01-30T05:14:53;-1.30;118.99
75296;DHT22;64623;44.738;37.804;2024-01-30T05:15:56;-1.28;118.99
75296;DHT22;64623;44.738;37.804;2024-01-30T05:16:59;-1.25;118.99
75296;DHT22;64623;44.738;37.804;2024-01-30T05:18:02;-1.29;118.99
75296;DHT22;64623;44.738;37.804;2024-01-30T05:19:06;-1.30;118.99
75296;DHT22;64623;44.738;37.804;2024-01-30T05:20:09;-1.27;118.99
75296;DHT22;64623;44.738;37.804;2024-01-30T05:21:13;-1.28;118.99
75296;DHT22;64623;44.738;37.804;2024-01-30T05:22:16;-1.24;118.99
75296;DHT22;64623;44.738;37.804;2024-01-30T05:23:21;-1.20;118.99
75296;DHT22;64623;44.738;37.804;2024-01-30T05:24:24;-1.12;118.99
75296;DHT22;64623;44.738;37.804;2024-01-30T05:25:27;-1.05;118.99
75296;DHT22;64623;44.738;37.804;2024-01-30T05:26:31;-0.96;118.99
75296;DHT22;64623;44.738;37.804;2024-01-30T05:27:33;-0.83;118.99
75296;DHT22;64623;44.738;37.804;2024-01-30T05:28:36;-0.74;118.99
75296;DHT22;64623;44.738;37.804;2024-01-30T05:29:40;-0.67;118.99
75296;DHT22;64623;44.738;37.804;2024-01-30T05:30:46;-0.56;118.99
75296;DHT22;64623;44.738;37.804;2024-01-30T05:31:49;-0.45;118.99
75296;DHT22;64623;44.738;37.804;2024-01-30T05:32:51;-0.44;118.99
75296;DHT22;64623;44.738;37.804;2024-01-30T05:33:55;-0.39;118.99
75296;DHT22;64623;44.738;37.804;2024-01-30T05:34:58;-0.22;118.99
75296;DHT22;64623;44.738;37.804;2024-01-30T05:36:01;-0.10;118.99
75296;DHT22;64623;44.738;37.804;2024-01-30T05:37:04;-0.06;118.99
75296;DHT22;64623;44.738;37.804;2024-01-30T05:38:07;-0.02;118.99
75296;DHT22;64623;44.738;37.804;2024-01-30T05:39:10;0.06;118.99
75296;DHT22;64623;44.738;37.804;2024-01-30T05:40:13;0.14;118.99
75296;DHT22;64623;44.738;37.804;2024-01-30T05:41:16;0.20;118.99
75296;DHT22;64623;44.738;37.804;2024-01-30T05:42:19;0.20;118.99
75296;DHT22;64623;44.738;37.804;2024-01-30T05:43:22;0.25;118.99
75296;DHT22;64623;44.738;37.804;2024-01-30T05:44:25;0.39;118.99
75296;DHT22;64623;44.738;37.804;2024-01-30T05:45:28;0.44;118.99
75296;DHT22;64623;44.738;37.804;2024-01-30T05:46:31;0.51;118.99
75296;DHT22;64623;44.738;37.804;2024-01-30T05:47:37;0.64;118.99
75296;DHT22;64623;44.738;37.804;2024-01-30T05:48:40;0.77;118.99
75296;DHT22;64623;44.738;37.804;2024-01-30T05:49:43;0.79;118.99
75296;DHT22;64623;44.738;37.804;2024-01-30T05:50:46;0.90;118.99
75296;DHT22;64623;44.738;37.804;2024-01-30T05:51:49;1.01;118.99
75296;DHT22;64623;44.738;37.804;2024-01-30T05:52:52;1.24;118.99
75296;DHT22;64623;44.738;37.804;2024-01-30T05:53:55;1.40;118.99
75296;DHT22;64623;44.738;37.804;2024-01-30T05:54:58;1.68;118.99
75296;DHT22;64623;44.738;37.804;2024-01-30T05:56:02;1.98;118.99
75296;DHT22;64623;44.738;37.804;2024-01-30T05:57:05;2.19;118.99
75296;DHT22;64623;44.738;37.804;2024-01-30T05:58:08;2.35;118.99
75296;DHT22;64623;44.738;37.804;2024-01-30T05:59:11;2.65;118.99
75296;DHT22;64623;44.738;37.804;2024-01-30T06:00:14;2.79;118.99
75296;DHT22;64623;44.738;37.804;2024-01-30T06:01:17;2.98;118.99
75296;DHT22;64623;44.738;37.804;2024-01-30T06:02:20;3.21;118.99
75296;DHT22;64623;44.738;37.804;2024-01-30T06:03:23;3.38;118.99
75296;DHT22;64623;44.738;37.804;2024-01-30T06:04:26;3.46;107.48
75296;DHT22;64623;44.738;37.804;2024-01-30T06:05:29;3.46;110.84
75296;DHT22;64623;44.738;37.804;2024-01-30T06:06:32;3.68;113.24
75296;DHT22;64623;44.738;37.804;2024-01-30T06:07:35;3.62;98.65
75296;DHT22;64623;44.738;37.804;2024-01-30T06:08:38;3.57;92.94
75296;DHT22;64623;44.738;37.804;2024-01-30T06:09:41;3.67;98.67
75296;DHT22;64623;44.738;37.804;2024-01-30T06:10:44;3.97;96.55
75296;DHT22;64623;44.738;37.804;2024-01-30T06:11:47;4.19;87.80
75296;DHT22;64623;44.738;37.804;2024-01-30T06:12:50;4.21;70.90
75296;DHT22;64623;44.738;37.804;2024-01-30T06:13:53;4.41;83.95
75296;DHT22;64623;44.738;37.804;2024-01-30T06:14:56;4.64;77.15
75296;DHT22;64623;44.738;37.804;2024-01-30T06:16:00;4.62;78.67
75296;DHT22;64623;44.738;37.804;2024-01-30T06:17:03;4.75;81.43
75296;DHT22;64623;44.738;37.804;2024-01-30T06:18:06;5.07;75.70
75296;DHT22;64623;44.738;37.804;2024-01-30T06:19:09;4.91;67.25
75296;DHT22;64623;44.738;37.804;2024-01-30T06:20:12;4.92;85.90
75296;DHT22;64623;44.738;37.804;2024-01-30T06:21:15;5.17;78.25
75296;DHT22;64623;44.738;37.804;2024-01-30T06:22:18;5.09;76.05
75296;DHT22;64623;44.738;37.804;2024-01-30T06:23:21;4.41;78.57
75296;DHT22;64623;44.738;37.804;2024-01-30T06:24:24;3.55;87.08
75296;DHT22;64623;44.738;37.804;2024-01-30T06:25:27;3.05;98.90
75296;DHT22;64623;44.738;37.804;2024-01-30T06:26:30;2.66;103.91
75296;DHT22;64623;44.738;37.804;2024-01-30T06:27:33;2.49;105.79
75296;DHT22;64623;44.738;37.804;2024-01-30T06:28:36;2.28;107.37
75296;DHT22;64623;44.738;37.804;2024-01-30T06:29:39;2.34;115.90